Time;durP1;ratioP1;P1;durP2;ratioP2;P2;SDS_P1;SDS_P2;PMS_P1;PMS_P2;Temp;Humidity;BMP_temperature;BMP_pressure;BME280_temperature;BME280_humidity;BME280_pressure;Samples;Min_cycle;Max_cycle;Signal;HPM_P1;HPM_P2
2021/01/23 05:00:27;;;;;;;21.40;13.57;;;1.90;99.90;;;;;;5846915;23;20748;-69
2021/01/23 05:03:01;;;;;;;21.13;14.25;;;1.90;99.90;;;;;;4935069;29;20194;-69
2021/01/23 05:05:28;;;;;;;24.70;15.32;;;1.90;99.90;;;;;;4935374;29;20237;-69
2021/01/23 05:08:04;;;;;;;24.55;16.08;;;1.90;99.90;;;;;;4935106;28;20226;-69
2021/01/23 05:10:31;;;;;;;23.90;14.38;;;1.90;99.90;;;;;;4937056;29;20276;-69
2021/01/23 05:12:58;;;;;;;24.75;14.32;;;1.90;99.90;;;;;;4936994;29;20237;-70
2021/01/23 05:15:26;;;;;;;23.80;14.25;;;1.90;99.90;;;;;;4936707;29;20309;-69
2021/01/23 05:17:54;;;;;;;31.77;14.50;;;1.90;99.90;;;;;;4932889;29;20214;-70
2021/01/23 05:20:35;;;;;;;25.95;15.05;;;1.90;99.90;;;;;;4921247;29;20206;-70
2021/01/23 05:23:03;;;;;;;32.50;16.00;;;1.90;99.90;;;;;;4936023;29;20198;-70
2021/01/23 05:25:30;;;;;;;25.33;14.25;;;1.90;99.90;;;;;;4930292;29;20686;-71
2021/01/23 05:27:57;;;;;;;24.20;14.90;;;1.90;99.90;;;;;;4917933;29;20225;-71
2021/01/23 05:30:24;;;;;;;25.05;15.20;;;1.90;99.90;;;;;;4927200;29;20205;-71
2021/01/23 05:33:06;;;;;;;25.98;14.10;;;1.90;99.90;;;;;;4923224;29;20687;-70
2021/01/23 05:35:32;;;;;;;26.55;15.07;;;1.90;99.90;;;;;;4923223;29;20301;-70
2021/01/23 05:37:58;;;;;;;28.83;15.48;;;1.80;99.90;;;;;;4932669;29;20213;-71
2021/01/23 05:40:31;;;;;;;23.80;14.70;;;1.80;99.90;;;;;;4933508;29;20213;-72
2021/01/23 05:42:57;;;;;;;27.40;15.13;;;1.80;99.90;;;;;;4917768;29;20206;-73
2021/01/23 05:45:23;;;;;;;23.70;14.73;;;1.80;99.90;;;;;;4917610;29;20226;-73
2021/01/23 05:47:49;;;;;;;28.25;16.02;;;1.80;99.90;;;;;;4916987;29;20638;-71
2021/01/23 05:50:17;;;;;;;27.27;16.08;;;1.80;99.90;;;;;;4918433;29;20214;-71
2021/01/23 05:52:43;;;;;;;31.20;16.15;;;1.80;99.90;;;;;;4919453;29;20249;-72
2021/01/23 05:55:10;;;;;;;30.05;15.65;;;1.80;99.90;;;;;;4935136;29;20224;-72
2021/01/23 05:57:36;;;;;;;25.75;15.40;;;1.90;99.90;;;;;;4921145;29;20214;-72
2021/01/23 06:00:05;;;;;;;26.60;15.98;;;1.90;99.90;;;;;;4921410;29;20231;-73
2021/01/23 06:02:31;;;;;;;27.23;16.83;;;1.90;99.90;;;;;;4926221;29;20300;-72
2021/01/23 06:04:58;;;;;;;26.15;15.20;;;1.90;99.90;;;;;;4938894;29;20230;-72
2021/01/23 06:07:47;;;;;;;32.67;16.40;;;1.90;99.90;;;;;;4938394;28;20237;-73
2021/01/23 06:10:36;;;;;;;23.10;15.20;;;1.80;99.90;;;;;;4936376;29;20199;-72
2021/01/23 06:13:04;;;;;;;27.20;15.10;;;1.80;99.90;;;;;;4900461;29;20302;-72
2021/01/23 06:15:37;;;;;;;26.50;15.63;;;1.80;99.90;;;;;;4921778;29;20203;-73
2021/01/23 06:18:06;;;;;;;30.90;16.58;;;1.80;99.90;;;;;;4901021;29;20211;-73
2021/01/23 06:20:53;;;;;;;27.77;15.82;;;1.80;99.90;;;;;;4918450;29;20223;-73
2021/01/23 06:23:21;;;;;;;31.92;17.17;;;1.80;99.90;;;;;;4901061;29;20215;-73
2021/01/23 06:26:00;;;;;;;31.48;16.85;;;1.80;99.90;;;;;;4926957;29;20210;-73
2021/01/23 06:28:50;;;;;;;31.17;16.58;;;1.80;99.90;;;;;;4939224;29;20212;-73
2021/01/23 06:31:33;;;;;;;34.90;16.67;;;1.80;99.90;;;;;;4914229;29;20683;-73
2021/01/23 06:34:19;;;;;;;35.42;18.88;;;1.80;99.90;;;;;;4920445;29;20579;-72
2021/01/23 06:36:45;;;;;;;37.35;18.02;;;1.80;99.90;;;;;;4910529;29;20210;-72
2021/01/23 06:39:13;;;;;;;40.78;19.58;;;1.70;99.90;;;;;;4920661;29;20340;-73
2021/01/23 06:41:40;;;;;;;32.97;17.83;;;1.80;99.90;;;;;;4930370;29;20720;-72
2021/01/23 06:44:17;;;;;;;32.22;17.30;;;1.70;99.90;;;;;;4938073;29;20277;-71
2021/01/23 06:46:56;;;;;;;39.35;17.98;;;1.80;99.90;;;;;;4926034;29;20318;-71
2021/01/23 06:49:22;;;;;;;31.40;17.95;;;1.80;99.90;;;;;;4918602;29;20301;-71
2021/01/23 06:51:48;;;;;;;37.20;20.90;;;1.80;99.90;;;;;;4928463;29;20221;-71
2021/01/23 06:54:16;;;;;;;40.42;20.20;;;1.80;99.90;;;;;;4939369;29;20221;-70
2021/01/23 06:56:43;;;;;;;30.65;17.42;;;1.80;99.90;;;;;;4926642;29;20206;-70
2021/01/23 06:59:21;;;;;;;36.15;19.08;;;1.80;99.90;;;;;;4937691;29;20257;-71
2021/01/23 07:01:57;;;;;;;45.53;21.40;;;1.80;99.90;;;;;;4926377;29;20276;-69
2021/01/23 07:04:24;;;;;;;42.10;21.02;;;1.80;99.90;;;;;;4932962;29;20222;-69
2021/01/23 07:06:50;;;;;;;38.22;20.20;;;1.80;99.90;;;;;;4923470;28;20665;-69
2021/01/23 07:09:17;;;;;;;42.58;20.27;;;1.80;99.90;;;;;;4931538;29;20209;-69
2021/01/23 07:11:43;;;;;;;33.63;19.58;;;1.80;99.90;;;;;;4919546;29;20226;-69
2021/01/23 07:14:10;;;;;;;40.40;21.48;;;1.90;99.90;;;;;;4919761;29;20206;-69
2021/01/23 07:16:38;;;;;;;35.58;20.00;;;1.90;99.90;;;;;;4928404;29;20213;-68
2021/01/23 07:19:06;;;;;;;41.10;21.63;;;1.90;99.90;;;;;;4921477;28;20207;-68
2021/01/23 07:21:34;;;;;;;42.28;21.45;;;1.90;99.90;;;;;;4929602;29;20222;-69
2021/01/23 07:24:01;;;;;;;34.90;19.80;;;1.90;99.90;;;;;;4923687;29;20273;-69
2021/01/23 07:26:29;;;;;;;37.40;22.38;;;1.90;99.90;;;;;;4918118;29;20258;-68
2021/01/23 07:28:56;;;;;;;43.58;21.00;;;1.90;99.90;;;;;;4917908;29;20265;-67
2021/01/23 07:31:24;;;;;;;45.67;23.45;;;1.90;99.90;;;;;;4935417;28;20285;-71
2021/01/23 07:33:51;;;;;;;43.95;22.85;;;1.90;99.90;;;;;;4938615;29;20209;-73
2021/01/23 07:36:28;;;;;;;47.60;23.05;;;2.00;99.90;;;;;;4935016;29;20622;-70
2021/01/23 07:38:55;;;;;;;40.80;22.38;;;2.00;99.90;;;;;;4931410;29;20209;-69
2021/01/23 07:41:21;;;;;;;41.25;22.17;;;2.00;99.90;;;;;;4930773;29;20226;-70
2021/01/23 07:43:49;;;;;;;39.53;22.13;;;2.00;99.90;;;;;;4917091;29;20601;-69
2021/01/23 07:46:16;;;;;;;37.33;21.45;;;2.00;99.90;;;;;;4917468;29;20210;-68
2021/01/23 07:48:43;;;;;;;39.13;19.58;;;2.00;99.90;;;;;;4917463;29;20199;-68
2021/01/23 07:51:22;;;;;;;38.53;20.15;;;2.00;99.90;;;;;;4929347;29;20236;-68
2021/01/23 07:54:09;;;;;;;37.35;21.05;;;2.00;99.90;;;;;;4936329;29;20202;-68
2021/01/23 07:56:35;;;;;;;39.78;20.40;;;1.90;99.90;;;;;;4919942;29;20254;-68
2021/01/23 07:59:03;;;;;;;35.17;21.50;;;2.00;99.90;;;;;;4917551;29;20210;-68
2021/01/23 08:01:29;;;;;;;41.55;21.80;;;2.00;99.90;;;;;;4916542;29;20249;-68
2021/01/23 08:03:55;;;;;;;45.47;21.70;;;2.00;99.90;;;;;;4921632;29;20297;-68
2021/01/23 08:06:23;;;;;;;46.50;21.88;;;2.00;99.90;;;;;;4924675;29;20223;-68
2021/01/23 08:08:50;;;;;;;40.60;20.55;;;2.10;99.90;;;;;;4916302;29;20217;-66
2021/01/23 08:11:36;;;;;;;34.90;21.73;;;2.00;99.90;;;;;;4916158;29;20252;-67
2021/01/23 08:14:11;;;;;;;37.63;20.95;;;2.10;99.90;;;;;;4914171;29;20633;-71
2021/01/23 08:16:50;;;;;;;41.35;21.55;;;2.10;99.90;;;;;;4930955;29;20678;-70
2021/01/23 08:19:17;;;;;;;48.25;23.48;;;2.10;99.90;;;;;;4927343;29;20203;-70
2021/01/23 08:21:43;;;;;;;57.57;26.43;;;2.10;99.90;;;;;;4924924;29;20478;-70
2021/01/23 08:24:27;;;;;;;41.28;23.80;;;2.20;99.90;;;;;;4919640;29;20482;-71
2021/01/23 08:26:53;;;;;;;39.75;21.65;;;2.20;99.90;;;;;;4920086;29;20289;-69
2021/01/23 08:29:20;;;;;;;42.80;21.60;;;2.20;99.90;;;;;;4917529;29;20624;-71
2021/01/23 08:32:00;;;;;;;40.80;21.95;;;2.30;99.90;;;;;;4917018;29;20733;-70
2021/01/23 08:34:26;;;;;;;41.22;22.52;;;2.30;99.90;;;;;;4917539;29;20277;-70
2021/01/23 08:36:52;;;;;;;33.65;20.80;;;2.30;99.90;;;;;;4927829;29;20229;-70
2021/01/23 08:39:18;;;;;;;39.42;22.38;;;2.30;99.90;;;;;;4928740;29;20218;-70
2021/01/23 08:41:44;;;;;;;36.95;20.02;;;2.30;99.90;;;;;;4926461;29;20355;-70
2021/01/23 08:44:10;;;;;;;44.35;22.00;;;2.30;99.90;;;;;;4931725;28;20227;-70
2021/01/23 08:46:37;;;;;;;39.03;19.23;;;2.30;99.90;;;;;;4924241;29;20642;-68
2021/01/23 08:49:03;;;;;;;33.95;20.13;;;2.30;99.90;;;;;;4929690;29;20203;-67
2021/01/23 08:51:30;;;;;;;34.75;19.00;;;2.30;99.90;;;;;;4919304;29;20238;-68
2021/01/23 08:53:56;;;;;;;41.20;23.00;;;2.40;99.90;;;;;;4916860;29;20206;-68
2021/01/23 08:56:22;;;;;;;44.25;22.65;;;2.40;99.90;;;;;;4917329;29;20285;-68
2021/01/23 08:58:48;;;;;;;45.85;24.38;;;2.50;99.90;;;;;;4916227;29;20254;-68
2021/01/23 09:01:15;;;;;;;38.25;20.55;;;2.50;99.90;;;;;;4925468;29;20238;-68
2021/01/23 09:03:42;;;;;;;36.80;22.42;;;2.60;99.90;;;;;;4917200;29;20212;-68
2021/01/23 09:06:08;;;;;;;39.55;22.02;;;2.60;99.90;;;;;;4916500;29;20206;-69
2021/01/23 09:08:34;;;;;;;41.78;21.50;;;2.60;99.90;;;;;;4916540;29;20210;-68
2021/01/23 09:11:01;;;;;;;39.38;21.98;;;2.60;99.90;;;;;;4916301;29;20233;-68
2021/01/23 09:13:27;;;;;;;47.67;24.58;;;2.70;99.90;;;;;;4915758;29;20607;-68
2021/01/23 09:15:54;;;;;;;45.05;24.10;;;2.70;99.90;;;;;;4918829;29;20261;-68
2021/01/23 09:18:20;;;;;;;41.92;23.55;;;2.70;99.90;;;;;;4921579;29;20209;-68
2021/01/23 09:20:47;;;;;;;43.22;23.30;;;2.80;99.90;;;;;;4916034;29;20710;-69
2021/01/23 09:23:13;;;;;;;41.30;23.85;;;2.80;99.90;;;;;;4917836;29;20698;-70
2021/01/23 09:25:42;;;;;;;39.88;22.80;;;2.80;99.90;;;;;;4934268;29;20233;-71
2021/01/23 09:28:09;;;;;;;42.17;23.35;;;2.90;99.90;;;;;;4930532;29;20203;-71
2021/01/23 09:30:35;;;;;;;36.10;22.17;;;2.90;99.90;;;;;;4918722;29;20695;-71
2021/01/23 09:33:01;;;;;;;38.95;21.55;;;2.90;99.90;;;;;;4934389;29;20214;-72
2021/01/23 09:35:27;;;;;;;41.42;21.95;;;2.90;99.90;;;;;;4941230;29;20261;-72
2021/01/23 09:37:54;;;;;;;34.33;20.80;;;2.90;99.90;;;;;;4943805;29;20354;-72
2021/01/23 09:40:21;;;;;;;38.00;20.13;;;3.00;99.90;;;;;;4938521;29;20237;-70
2021/01/23 09:42:47;;;;;;;49.05;28.25;;;3.10;99.90;;;;;;4920470;29;20607;-71
2021/01/23 09:45:13;;;;;;;44.10;25.05;;;3.10;99.90;;;;;;4920350;29;20265;-71
2021/01/23 09:47:39;;;;;;;44.85;25.10;;;3.20;99.90;;;;;;4925452;29;20210;-71
2021/01/23 09:50:07;;;;;;;42.92;25.08;;;3.20;99.90;;;;;;4942567;29;20210;-71
2021/01/23 09:52:33;;;;;;;36.92;22.30;;;3.20;99.90;;;;;;4924398;29;20210;-72
2021/01/23 09:55:00;;;;;;;37.35;22.05;;;3.30;99.90;;;;;;4932204;29;20580;-71
2021/01/23 09:57:26;;;;;;;47.90;28.92;;;3.40;99.90;;;;;;4922272;29;20702;-71
2021/01/23 09:59:52;;;;;;;42.38;24.38;;;3.40;99.90;;;;;;4923689;29;20275;-72
2021/01/23 10:02:18;;;;;;;37.22;23.00;;;3.50;99.90;;;;;;4924603;29;20255;-71
2021/01/23 10:04:45;;;;;;;41.42;23.73;;;3.50;99.90;;;;;;4919741;29;20234;-72
2021/01/23 10:07:11;;;;;;;42.17;25.77;;;3.50;99.90;;;;;;4919045;29;20258;-72
2021/01/23 10:09:37;;;;;;;30.52;18.80;;;3.50;99.90;;;;;;4925840;29;20202;-72
2021/01/23 10:12:05;;;;;;;102.43;49.38;;;3.50;99.90;;;;;;4938611;29;20289;-72
2021/01/23 10:14:31;;;;;;;72.88;38.55;;;3.60;99.90;;;;;;4932118;29;20246;-72
2021/01/23 10:16:57;;;;;;;106.18;47.92;;;3.60;99.90;;;;;;4919063;29;20652;-71
2021/01/23 10:19:23;;;;;;;49.55;27.92;;;3.60;99.90;;;;;;4920524;29;20207;-73
2021/01/23 10:21:49;;;;;;;46.65;24.38;;;3.70;99.90;;;;;;4934710;29;20225;-71
2021/01/23 10:24:15;;;;;;;58.80;31.35;;;3.70;99.90;;;;;;4918838;29;20234;-72
2021/01/23 10:26:41;;;;;;;121.38;52.17;;;3.70;99.90;;;;;;4919677;29;20202;-72
2021/01/23 10:29:08;;;;;;;124.88;53.78;;;3.80;99.90;;;;;;4924081;29;20214;-72
2021/01/23 10:31:34;;;;;;;338.85;112.45;;;3.80;99.90;;;;;;4927681;29;20253;-68
2021/01/23 10:34:00;;;;;;;75.03;39.70;;;3.90;99.90;;;;;;4921192;29;20209;-68
2021/01/23 10:36:27;;;;;;;43.30;25.80;;;3.90;99.90;;;;;;4918657;29;20211;-68
2021/01/23 10:38:53;;;;;;;51.45;27.95;;;4.00;99.90;;;;;;4918663;29;20214;-68
2021/01/23 10:41:19;;;;;;;43.83;23.27;;;4.00;99.90;;;;;;4918709;29;20227;-66
2021/01/23 10:43:45;;;;;;;41.03;23.30;;;4.20;99.90;;;;;;4926455;29;20749;-67
2021/01/23 10:46:12;;;;;;;31.63;19.05;;;4.20;99.90;;;;;;4928970;29;20199;-67
2021/01/23 10:48:38;;;;;;;30.10;20.13;;;4.30;99.90;;;;;;4918638;29;20750;-66
2021/01/23 10:51:04;;;;;;;28.50;18.95;;;4.30;99.90;;;;;;4918711;29;20295;-67
2021/01/23 10:53:31;;;;;;;36.78;19.52;;;4.30;99.90;;;;;;4918361;29;20210;-67
2021/01/23 10:55:58;;;;;;;33.20;19.15;;;4.30;99.90;;;;;;4918234;29;20207;-67
2021/01/23 10:58:24;;;;;;;31.52;19.73;;;4.40;99.90;;;;;;4918234;29;20548;-67
2021/01/23 11:00:50;;;;;;;30.20;18.25;;;4.40;99.90;;;;;;4917303;29;20246;-68
2021/01/23 11:03:17;;;;;;;28.83;19.67;;;4.50;99.90;;;;;;4917835;29;20210;-67
2021/01/23 11:05:44;;;;;;;24.65;16.55;;;4.50;99.90;;;;;;4918102;29;20687;-67
2021/01/23 11:08:10;;;;;;;31.98;18.35;;;4.50;99.90;;;;;;4918195;29;20224;-67
2021/01/23 11:10:36;;;;;;;31.85;18.63;;;4.60;99.90;;;;;;4918314;29;20570;-68
2021/01/23 11:13:03;;;;;;;26.63;16.65;;;4.60;99.90;;;;;;4921662;29;20198;-68
2021/01/23 11:15:29;;;;;;;28.55;17.80;;;4.70;99.90;;;;;;4936061;29;20210;-69
2021/01/23 11:17:55;;;;;;;29.15;16.80;;;4.80;99.90;;;;;;4931616;29;20253;-69
2021/01/23 11:20:22;;;;;;;30.55;19.75;;;4.80;99.90;;;;;;4929107;29;20206;-69
2021/01/23 11:22:49;;;;;;;25.40;16.98;;;4.90;99.90;;;;;;4917472;29;20225;-69
2021/01/23 11:25:16;;;;;;;27.60;17.63;;;4.90;99.90;;;;;;4918132;29;20222;-70
2021/01/23 11:27:42;;;;;;;23.52;15.70;;;5.00;99.90;;;;;;4918044;29;20214;-69
2021/01/23 11:30:10;;;;;;;31.25;17.90;;;5.00;99.90;;;;;;4936141;28;20268;-69
2021/01/23 11:32:36;;;;;;;25.67;15.57;;;5.10;99.90;;;;;;4921560;29;20305;-69
2021/01/23 11:35:03;;;;;;;26.90;16.48;;;5.10;99.90;;;;;;4918287;29;20210;-69
2021/01/23 11:37:29;;;;;;;21.48;15.30;;;5.10;99.90;;;;;;4916914;29;20273;-69
2021/01/23 11:39:56;;;;;;;24.05;16.20;;;5.20;99.90;;;;;;4934715;29;20221;-69
2021/01/23 11:42:22;;;;;;;20.00;14.25;;;5.20;99.90;;;;;;4934644;28;20225;-69
2021/01/23 11:44:48;;;;;;;26.17;18.20;;;5.20;99.90;;;;;;4917424;29;20230;-69
2021/01/23 11:47:14;;;;;;;25.35;18.58;;;5.20;99.90;;;;;;4916778;29;20317;-68
2021/01/23 11:49:40;;;;;;;18.08;14.48;;;5.20;99.90;;;;;;4917435;29;20348;-68
2021/01/23 11:52:06;;;;;;;26.65;17.73;;;5.30;99.90;;;;;;4917169;29;20643;-68
2021/01/23 11:54:33;;;;;;;23.17;13.48;;;5.30;99.90;;;;;;4916833;29;20258;-68
2021/01/23 11:56:59;;;;;;;19.33;12.93;;;5.30;99.90;;;;;;4916916;29;20239;-68
2021/01/23 11:59:26;;;;;;;19.00;12.55;;;5.30;99.90;;;;;;4917328;29;20213;-68
2021/01/23 12:01:52;;;;;;;21.15;13.90;;;5.40;99.90;;;;;;4916697;29;20242;-68
2021/01/23 12:04:19;;;;;;;19.73;13.55;;;5.50;99.90;;;;;;4917774;29;20255;-68
2021/01/23 12:06:46;;;;;;;17.25;12.65;;;5.50;99.90;;;;;;4916949;29;20248;-69
2021/01/23 12:09:12;;;;;;;26.42;13.90;;;5.60;99.90;;;;;;4917130;29;20205;-69
2021/01/23 12:11:39;;;;;;;19.77;13.35;;;5.60;99.90;;;;;;4916736;29;20234;-68
2021/01/23 12:14:05;;;;;;;23.95;13.55;;;5.60;99.90;;;;;;4916971;29;20630;-69
2021/01/23 12:16:31;;;;;;;19.60;12.60;;;5.70;99.90;;;;;;4916566;29;20688;-68
2021/01/23 12:18:58;;;;;;;16.33;11.40;;;5.70;99.90;;;;;;4916739;29;20257;-68
2021/01/23 12:21:25;;;;;;;14.82;11.18;;;5.70;99.90;;;;;;4916738;29;20242;-68
2021/01/23 12:23:53;;;;;;;17.50;9.60;;;5.70;99.90;;;;;;4916665;29;20206;-69
2021/01/23 12:26:19;;;;;;;16.30;10.50;;;5.70;99.90;;;;;;4916671;29;20258;-69
2021/01/23 12:28:46;;;;;;;16.20;9.52;;;5.80;99.90;;;;;;4916638;29;20218;-68
2021/01/23 12:31:12;;;;;;;13.02;10.02;;;5.80;99.90;;;;;;4915780;29;20235;-69
2021/01/23 12:33:38;;;;;;;15.82;9.43;;;5.80;99.90;;;;;;4916357;29;20357;-69
2021/01/23 12:36:05;;;;;;;13.43;9.88;;;5.90;99.90;;;;;;4916640;29;20207;-69
2021/01/23 12:38:31;;;;;;;24.08;9.38;;;5.80;99.90;;;;;;4916364;29;20207;-69
2021/01/23 12:40:57;;;;;;;14.32;9.20;;;5.80;99.90;;;;;;4919336;29;20596;-69
2021/01/23 12:43:23;;;;;;;12.82;9.52;;;5.90;99.90;;;;;;4926999;29;20214;-69
2021/01/23 12:45:50;;;;;;;12.20;8.20;;;5.90;99.90;;;;;;4918889;29;20243;-68
2021/01/23 12:48:17;;;;;;;12.52;8.55;;;5.90;99.90;;;;;;4916911;29;20210;-67
2021/01/23 12:50:43;;;;;;;13.45;8.18;;;5.90;99.90;;;;;;4916481;29;20242;-67
2021/01/23 12:53:09;;;;;;;17.33;11.95;;;5.90;99.90;;;;;;4920291;29;20202;-68
2021/01/23 12:55:36;;;;;;;14.63;9.32;;;5.90;99.90;;;;;;4934979;29;20461;-67
2021/01/23 12:58:02;;;;;;;10.27;8.55;;;6.00;99.90;;;;;;4933118;29;20214;-68
2021/01/23 13:00:29;;;;;;;16.33;8.50;;;6.00;99.90;;;;;;4935155;29;20237;-67
2021/01/23 13:02:55;;;;;;;13.70;10.65;;;6.00;99.90;;;;;;4934023;28;20573;-68
2021/01/23 13:05:22;;;;;;;15.73;10.55;;;6.00;99.90;;;;;;4934454;29;20226;-68
2021/01/23 13:07:48;;;;;;;15.68;10.00;;;6.00;99.90;;;;;;4918680;29;20255;-66
2021/01/23 13:10:14;;;;;;;15.45;11.52;;;6.00;99.90;;;;;;4915883;29;20218;-67
2021/01/23 13:12:41;;;;;;;20.50;13.55;;;6.00;99.90;;;;;;4917165;29;20697;-67
2021/01/23 13:15:08;;;;;;;15.25;9.60;;;6.00;99.90;;;;;;4917048;29;20202;-69
2021/01/23 13:17:35;;;;;;;13.75;11.32;;;6.00;99.90;;;;;;4915776;29;20225;-69
2021/01/23 13:20:02;;;;;;;16.60;12.48;;;6.00;99.90;;;;;;4916439;29;20305;-68
2021/01/23 13:22:28;;;;;;;12.57;11.10;;;6.00;99.90;;;;;;4915251;29;20234;-68
2021/01/23 13:24:55;;;;;;;13.45;10.73;;;6.00;99.90;;;;;;4916354;29;20628;-69
2021/01/23 13:27:22;;;;;;;13.50;10.18;;;6.00;99.90;;;;;;4916364;29;20210;-68
2021/01/23 13:29:48;;;;;;;12.45;10.10;;;6.00;99.90;;;;;;4916562;29;20575;-68
2021/01/23 13:32:14;;;;;;;13.80;10.73;;;6.00;99.90;;;;;;4915286;29;20257;-70
2021/01/23 13:34:41;;;;;;;19.00;14.32;;;6.10;99.90;;;;;;4918394;29;20274;-70
2021/01/23 13:37:08;;;;;;;16.17;9.48;;;6.10;99.90;;;;;;4917443;29;20222;-69
2021/01/23 13:39:34;;;;;;;15.95;8.90;;;6.20;99.90;;;;;;4917393;29;20417;-70
2021/01/23 13:42:01;;;;;;;10.07;7.30;;;6.10;99.90;;;;;;4921933;29;20226;-68
2021/01/23 13:44:27;;;;;;;8.52;7.45;;;6.10;99.90;;;;;;4935985;29;20594;-70
2021/01/23 13:46:53;;;;;;;8.95;7.93;;;6.20;99.90;;;;;;4935540;29;20526;-70
2021/01/23 13:49:19;;;;;;;14.02;9.20;;;6.20;99.90;;;;;;4936050;29;20206;-70
2021/01/23 13:51:45;;;;;;;7.65;6.85;;;6.10;99.90;;;;;;4924220;29;20578;-70
2021/01/23 13:54:12;;;;;;;8.60;7.32;;;6.20;99.90;;;;;;4916752;29;20258;-70
2021/01/23 13:56:38;;;;;;;8.43;7.05;;;6.10;99.90;;;;;;4917109;29;20215;-70
2021/01/23 13:59:05;;;;;;;6.57;6.10;;;6.10;99.90;;;;;;4916933;29;20588;-70
2021/01/23 14:01:31;;;;;;;7.55;6.65;;;6.10;99.90;;;;;;4915389;29;20238;-70
2021/01/23 14:03:57;;;;;;;8.70;6.80;;;6.20;99.90;;;;;;4916783;29;20577;-70
2021/01/23 14:06:23;;;;;;;8.00;6.55;;;6.10;99.90;;;;;;4916979;29;20552;-70
2021/01/23 14:08:49;;;;;;;10.48;7.90;;;6.10;99.90;;;;;;4916929;29;20211;-70
2021/01/23 14:11:16;;;;;;;9.10;7.50;;;6.10;99.90;;;;;;4918183;29;20229;-70
2021/01/23 14:13:42;;;;;;;9.77;6.18;;;6.10;99.90;;;;;;4935811;29;20215;-70
2021/01/23 14:16:08;;;;;;;8.80;6.30;;;6.00;99.90;;;;;;4935230;29;20849;-69
2021/01/23 14:18:34;;;;;;;14.60;11.20;;;6.00;99.90;;;;;;4939063;29;20232;-70
2021/01/23 14:21:01;;;;;;;7.53;6.53;;;6.00;99.90;;;;;;4935626;29;20277;-70
2021/01/23 14:23:27;;;;;;;9.23;7.53;;;6.00;99.90;;;;;;4919841;29;20620;-71
2021/01/23 14:25:53;;;;;;;7.43;6.65;;;5.90;99.90;;;;;;4919308;29;20702;-70
2021/01/23 14:28:20;;;;;;;9.30;8.10;;;5.90;99.90;;;;;;4919369;29;20286;-70
2021/01/23 14:30:47;;;;;;;11.60;7.00;;;5.90;99.90;;;;;;4919170;29;20601;-69
2021/01/23 14:33:13;;;;;;;10.02;6.88;;;5.90;99.90;;;;;;4918577;29;20206;-70
2021/01/23 14:35:39;;;;;;;7.35;6.53;;;5.90;99.90;;;;;;4918797;29;20218;-68
2021/01/23 14:38:05;;;;;;;12.15;7.60;;;5.90;99.90;;;;;;4918801;29;20243;-68
2021/01/23 14:40:31;;;;;;;11.35;7.90;;;5.80;99.90;;;;;;4919046;29;20235;-68
2021/01/23 14:42:57;;;;;;;8.25;6.88;;;5.90;99.90;;;;;;4925882;29;20210;-68
2021/01/23 14:45:24;;;;;;;7.97;7.00;;;5.80;99.90;;;;;;4918580;29;20226;-68
2021/01/23 14:47:50;;;;;;;10.18;6.80;;;5.80;99.90;;;;;;4917322;29;20210;-68
2021/01/23 14:50:18;;;;;;;11.20;7.05;;;5.80;99.90;;;;;;4918537;29;20221;-68
2021/01/23 14:52:45;;;;;;;11.02;7.07;;;5.80;99.90;;;;;;4925021;29;20638;-68
2021/01/23 14:55:12;;;;;;;9.27;6.90;;;5.90;99.90;;;;;;4925374;29;20198;-67
2021/01/23 14:57:39;;;;;;;13.68;9.00;;;5.90;99.90;;;;;;4923731;29;20210;-68
2021/01/23 15:00:07;;;;;;;7.82;7.13;;;5.90;99.90;;;;;;4918144;29;20206;-68
2021/01/23 15:02:34;;;;;;;12.02;9.57;;;5.90;99.90;;;;;;4917345;29;20221;-68
2021/01/23 15:05:00;;;;;;;14.93;11.38;;;5.90;99.90;;;;;;4919118;29;20223;-68
2021/01/23 15:07:27;;;;;;;19.92;14.40;;;5.90;99.90;;;;;;4918520;29;20225;-68
2021/01/23 15:09:53;;;;;;;13.43;10.52;;;5.80;99.90;;;;;;4913236;29;20223;-68
2021/01/23 15:12:19;;;;;;;15.57;11.73;;;5.80;99.90;;;;;;4917190;29;20226;-68
2021/01/23 15:14:45;;;;;;;17.52;13.73;;;5.80;99.90;;;;;;4927404;29;20545;-68
2021/01/23 15:17:11;;;;;;;15.73;13.02;;;5.80;99.90;;;;;;4918654;29;20215;-68
2021/01/23 15:19:38;;;;;;;22.17;19.77;;;5.80;99.90;;;;;;4916839;29;20667;-68
2021/01/23 15:22:05;;;;;;;16.48;12.80;;;5.80;99.90;;;;;;4918283;28;20231;-68
2021/01/23 15:24:32;;;;;;;15.27;10.35;;;5.80;99.90;;;;;;4927264;29;20225;-68
2021/01/23 15:26:58;;;;;;;10.57;8.68;;;5.80;99.90;;;;;;4928138;29;20206;-70
2021/01/23 15:29:24;;;;;;;9.93;8.70;;;5.70;99.90;;;;;;4916481;29;20210;-69
2021/01/23 15:31:51;;;;;;;18.58;14.40;;;5.70;99.90;;;;;;4920746;29;20238;-70
2021/01/23 15:34:17;;;;;;;14.15;12.60;;;5.70;99.90;;;;;;4917216;29;20210;-69
2021/01/23 15:36:44;;;;;;;12.32;8.23;;;5.60;99.90;;;;;;4916925;29;20662;-70
2021/01/23 15:39:12;;;;;;;19.05;13.90;;;5.60;99.90;;;;;;4909760;29;20285;-69
2021/01/23 15:41:38;;;;;;;11.55;10.35;;;5.60;99.90;;;;;;4908568;29;20227;-69
2021/01/23 15:44:05;;;;;;;10.13;8.98;;;5.60;99.90;;;;;;4916743;29;20211;-69
2021/01/23 15:46:31;;;;;;;10.68;8.10;;;5.60;99.90;;;;;;4915208;29;20246;-69
2021/01/23 15:48:57;;;;;;;11.73;8.73;;;5.60;99.90;;;;;;4918566;29;20210;-70
2021/01/23 15:51:24;;;;;;;9.07;8.13;;;5.60;99.90;;;;;;4923640;29;20234;-67
2021/01/23 15:53:51;;;;;;;11.77;9.45;;;5.60;99.90;;;;;;4916778;29;20631;-69
2021/01/23 15:56:17;;;;;;;10.60;8.43;;;5.50;99.90;;;;;;4916276;28;20292;-69
2021/01/23 15:58:43;;;;;;;10.75;8.68;;;5.50;99.90;;;;;;4914733;29;20219;-68
2021/01/23 16:01:09;;;;;;;15.88;12.88;;;5.50;99.90;;;;;;4922920;29;20296;-68
2021/01/23 16:03:35;;;;;;;15.43;11.40;;;5.50;99.90;;;;;;4917511;29;20273;-70
2021/01/23 16:06:02;;;;;;;15.13;11.13;;;5.50;99.90;;;;;;4914894;29;20241;-69
2021/01/23 16:08:29;;;;;;;10.30;8.82;;;5.50;99.90;;;;;;4918139;29;20202;-70
2021/01/23 16:10:55;;;;;;;10.40;8.68;;;5.50;99.90;;;;;;4927568;29;20234;-68
2021/01/23 16:13:22;;;;;;;14.05;8.75;;;5.50;99.90;;;;;;4928999;29;20213;-68
2021/01/23 16:15:48;;;;;;;13.27;8.27;;;5.40;99.90;;;;;;4921486;29;20215;-68
2021/01/23 16:18:15;;;;;;;12.45;11.02;;;5.40;99.90;;;;;;4915469;29;20229;-68
2021/01/23 16:20:41;;;;;;;15.68;12.10;;;5.40;99.90;;;;;;4914683;29;20253;-69
2021/01/23 16:23:09;;;;;;;15.82;11.02;;;5.40;99.90;;;;;;4915549;29;20634;-69
2021/01/23 16:25:37;;;;;;;11.95;9.55;;;5.40;99.90;;;;;;4912754;29;20231;-68
2021/01/23 16:28:05;;;;;;;14.57;11.85;;;5.40;99.90;;;;;;4924001;29;20210;-69
2021/01/23 16:30:33;;;;;;;13.80;11.30;;;5.30;99.90;;;;;;4934683;29;20242;-68
2021/01/23 16:33:00;;;;;;;13.00;9.75;;;5.30;99.90;;;;;;4914245;29;20210;-68
2021/01/23 16:35:26;;;;;;;10.45;8.48;;;5.30;99.90;;;;;;4915541;29;20209;-68
2021/01/23 16:37:52;;;;;;;9.75;8.75;;;5.30;99.90;;;;;;4914680;29;20704;-68
2021/01/23 16:40:21;;;;;;;8.80;7.90;;;5.30;99.90;;;;;;4915055;29;20341;-68
2021/01/23 16:42:48;;;;;;;17.27;9.68;;;5.30;99.90;;;;;;4927847;29;20552;-68
2021/01/23 16:45:17;;;;;;;12.57;8.57;;;5.30;99.90;;;;;;4912146;29;20230;-69
2021/01/23 16:47:43;;;;;;;11.80;8.05;;;5.30;99.90;;;;;;4911819;29;20211;-70
2021/01/23 16:50:10;;;;;;;11.90;9.23;;;5.30;99.90;;;;;;4911383;29;20573;-70
2021/01/23 16:52:37;;;;;;;13.93;8.70;;;5.30;99.90;;;;;;4913124;29;20208;-70
2021/01/23 16:55:05;;;;;;;37.05;16.83;;;5.30;99.90;;;;;;4916507;29;20679;-71
2021/01/23 16:57:31;;;;;;;13.52;10.43;;;5.20;99.90;;;;;;4916231;29;20198;-71
2021/01/23 16:59:58;;;;;;;11.00;8.80;;;5.30;99.90;;;;;;4916724;29;20292;-70
2021/01/23 17:02:25;;;;;;;11.20;9.90;;;5.20;99.90;;;;;;4914089;29;20596;-69
2021/01/23 17:04:51;;;;;;;16.30;12.05;;;5.20;99.90;;;;;;4915954;29;20230;-69
2021/01/23 17:07:17;;;;;;;13.55;10.65;;;5.20;99.90;;;;;;4906799;29;20269;-69
2021/01/23 17:09:43;;;;;;;33.85;24.77;;;5.20;99.90;;;;;;4917648;29;20225;-69
2021/01/23 17:12:10;;;;;;;14.05;10.60;;;5.20;99.90;;;;;;4929600;29;20386;-70
2021/01/23 17:14:36;;;;;;;21.40;16.20;;;5.20;99.90;;;;;;4933671;29;20358;-70
2021/01/23 17:17:02;;;;;;;32.60;19.60;;;5.20;99.90;;;;;;4933612;29;20219;-70
2021/01/23 17:19:29;;;;;;;26.98;18.02;;;5.20;99.90;;;;;;4934371;29;20297;-70
2021/01/23 17:21:55;;;;;;;23.65;15.45;;;5.20;99.90;;;;;;4923000;29;20257;-71
2021/01/23 17:24:21;;;;;;;16.75;11.95;;;5.20;99.90;;;;;;4907886;29;20207;-71
2021/01/23 17:26:48;;;;;;;47.58;25.65;;;5.20;99.90;;;;;;4912035;29;20210;-71
2021/01/23 17:29:14;;;;;;;32.40;20.05;;;5.20;99.90;;;;;;4914081;29;20222;-71
2021/01/23 17:31:41;;;;;;;25.85;16.42;;;5.10;99.90;;;;;;4914099;29;20230;-69
2021/01/23 17:34:07;;;;;;;49.97;27.92;;;5.10;99.90;;;;;;4915559;29;20301;-71
2021/01/23 17:36:34;;;;;;;22.33;14.00;;;5.20;99.90;;;;;;4924823;29;20281;-68
2021/01/23 17:39:00;;;;;;;31.10;17.23;;;5.20;99.90;;;;;;4933310;29;20214;-71
2021/01/23 17:41:26;;;;;;;47.85;23.52;;;5.10;99.90;;;;;;4926217;28;20218;-71